createdAt,value
2023-03-20T00:01:33.991Z,7.65
2023-03-20T00:03:54.889Z,8.18
2023-03-20T00:06:19.327Z,7.55
2023-03-20T00:08:39.728Z,7.18
2023-03-20T00:11:00.116Z,7.80
2023-03-20T00:13:27.377Z,7.47
2023-03-20T00:15:47.567Z,6.20
2023-03-20T00:18:19.154Z,5.20
2023-03-20T00:20:39.440Z,5.40
2023-03-20T00:22:59.647Z,5.85
2023-03-20T00:25:21.473Z,5.90
2023-03-20T00:27:42.113Z,6.60
2023-03-20T00:30:02.169Z,5.65
2023-03-20T00:32:22.404Z,4.30
2023-03-20T00:34:42.669Z,4.80
2023-03-20T00:37:03.221Z,5.18
2023-03-20T00:39:24.108Z,2.72
2023-03-20T00:41:47.202Z,3.15
2023-03-20T00:44:22.836Z,3.38
2023-03-20T00:46:44.378Z,3.90
2023-03-20T00:49:05.695Z,4.53
2023-03-20T00:51:26.018Z,4.82
2023-03-20T00:53:46.388Z,4.05
2023-03-20T00:56:06.889Z,4.22
2023-03-20T00:58:27.151Z,3.72
2023-03-20T01:00:47.675Z,2.58
2023-03-20T01:03:13.156Z,4.07
2023-03-20T01:05:33.332Z,4.13
2023-03-20T01:07:53.859Z,2.83
2023-03-20T01:10:14.564Z,3.70
2023-03-20T01:12:34.702Z,4.53
2023-03-20T01:14:58.616Z,5.30
2023-03-20T01:17:20.760Z,6.10
2023-03-20T01:19:40.961Z,6.30
2023-03-20T01:22:02.077Z,6.13
2023-03-20T01:24:22.364Z,5.68
2023-03-20T01:26:43.578Z,6.60
2023-03-20T01:29:16.539Z,6.63
2023-03-20T01:31:36.923Z,6.82
2023-03-20T01:33:57.361Z,5.63
2023-03-20T01:36:20.430Z,4.85
2023-03-20T01:38:41.366Z,5.97
2023-03-20T01:41:06.689Z,5.15
2023-03-20T01:43:28.061Z,5.03
2023-03-20T01:45:58.291Z,4.30
2023-03-20T01:48:19.424Z,4.95
2023-03-20T01:50:39.718Z,8.25
2023-03-20T01:53:08.574Z,7.45
2023-03-20T01:55:28.934Z,7.90
2023-03-20T01:57:51.728Z,6.72
2023-03-20T02:00:13.911Z,7.40
2023-03-20T02:02:34.308Z,6.47
2023-03-20T02:04:57.508Z,6.22
2023-03-20T02:07:20.347Z,8.25
2023-03-20T02:09:40.608Z,8.80
2023-03-20T02:12:01.420Z,8.80
2023-03-20T02:14:22.275Z,8.75
2023-03-20T02:16:42.573Z,8.73
2023-03-20T02:19:02.975Z,7.10
2023-03-20T02:21:29.549Z,5.93
2023-03-20T02:24:00.870Z,4.72
2023-03-20T02:26:26.567Z,4.13
2023-03-20T02:29:05.863Z,3.20
2023-03-20T02:31:45.030Z,3.05
2023-03-20T02:34:10.970Z,4.07
2023-03-20T02:36:43.452Z,3.72
2023-03-20T02:39:07.218Z,4.10
2023-03-20T02:41:33.009Z,4.70
2023-03-20T02:44:11.998Z,4.93
2023-03-20T02:46:51.389Z,4.72
2023-03-20T02:49:21.688Z,5.13
2023-03-20T02:51:44.637Z,8.85
2023-03-20T02:54:10.805Z,3.60
2023-03-20T02:56:33.386Z,4.55
2023-03-20T02:59:08.075Z,4.43
2023-03-20T03:01:32.561Z,3.83
2023-03-20T03:03:52.596Z,3.70
2023-03-20T03:06:25.308Z,3.92
2023-03-20T03:08:47.599Z,4.00
2023-03-20T03:11:08.585Z,4.07
2023-03-20T03:13:30.611Z,3.83
2023-03-20T03:15:53.338Z,3.22
2023-03-20T03:18:21.441Z,4.10
2023-03-20T03:20:43.335Z,4.22
2023-03-20T03:23:04.191Z,3.72
2023-03-20T03:25:26.327Z,3.38
2023-03-20T03:27:48.686Z,6.90
2023-03-20T03:30:16.051Z,9.00
2023-03-20T03:32:37.799Z,6.28
2023-03-20T03:34:58.370Z,5.30
2023-03-20T03:37:31.459Z,4.32
2023-03-20T03:40:17.911Z,8.68
2023-03-20T03:42:49.656Z,5.72
2023-03-20T03:45:20.289Z,14.98
2023-03-20T03:47:51.438Z,14.70
2023-03-20T03:50:17.794Z,15.63
2023-03-20T03:52:39.053Z,11.30
2023-03-20T03:55:02.379Z,8.35
2023-03-20T03:57:29.681Z,6.57
2023-03-20T03:59:51.151Z,6.20
2023-03-20T04:02:12.306Z,6.88
2023-03-20T04:04:34.160Z,7.22
2023-03-20T04:06:54.519Z,6.18
2023-03-20T04:09:14.679Z,6.07
2023-03-20T04:11:35.208Z,6.78
2023-03-20T04:13:55.324Z,6.00
2023-03-20T04:16:16.884Z,8.43
2023-03-20T04:18:37.006Z,8.25
2023-03-20T04:20:57.304Z,8.25
2023-03-20T04:23:17.535Z,8.45
2023-03-20T04:25:38.228Z,7.00
2023-03-20T04:27:58.669Z,6.53
2023-03-20T04:30:19.042Z,6.38
2023-03-20T04:32:39.245Z,6.72
2023-03-20T04:34:59.403Z,5.97
2023-03-20T04:37:19.582Z,7.07
2023-03-20T04:39:41.691Z,7.22
2023-03-20T04:42:02.339Z,5.20
2023-03-20T04:44:22.376Z,6.85
2023-03-20T04:46:42.623Z,8.60
2023-03-20T04:49:03.083Z,6.53
2023-03-20T04:51:23.096Z,6.95
2023-03-20T04:53:43.342Z,5.57
2023-03-20T04:56:03.665Z,6.75
2023-03-20T04:58:23.986Z,7.07
2023-03-20T05:00:44.685Z,6.47
2023-03-20T05:03:05.617Z,5.10
2023-03-20T05:05:26.391Z,5.10
2023-03-20T05:07:46.656Z,4.50
2023-03-20T05:10:07.459Z,4.22
2023-03-20T05:12:28.013Z,3.92
2023-03-20T05:14:48.019Z,4.40
2023-03-20T05:17:08.115Z,5.28
2023-03-20T05:19:28.189Z,5.10
2023-03-20T05:21:48.245Z,5.07
2023-03-20T05:24:08.364Z,5.43
2023-03-20T05:26:28.651Z,4.95
2023-03-20T05:28:48.767Z,3.80
2023-03-20T05:31:09.095Z,3.47
2023-03-20T05:33:29.331Z,3.90
2023-03-20T05:35:49.882Z,4.82
2023-03-20T05:38:10.101Z,7.55
2023-03-20T05:40:30.445Z,8.10
2023-03-20T05:42:50.904Z,7.35
2023-03-20T05:45:11.070Z,7.72
2023-03-20T05:47:31.341Z,15.02
2023-03-20T05:49:51.483Z,13.27
2023-03-20T05:52:11.753Z,7.22
2023-03-20T05:54:31.879Z,11.80
2023-03-20T05:56:52.205Z,11.50
2023-03-20T05:59:12.452Z,6.20
2023-03-20T06:01:32.671Z,6.35
2023-03-20T06:03:52.800Z,5.47
2023-03-20T06:06:13.117Z,6.20
2023-03-20T06:08:35.714Z,6.82
2023-03-20T06:10:56.007Z,5.70
2023-03-20T06:13:16.208Z,5.55
2023-03-20T06:15:36.665Z,5.72
2023-03-20T06:17:58.444Z,5.57
2023-03-20T06:20:18.829Z,5.25
2023-03-20T06:22:39.351Z,4.72
2023-03-20T06:24:59.660Z,4.40
2023-03-20T06:27:19.805Z,2.22
2023-03-20T06:29:39.933Z,2.90
2023-03-20T06:31:59.958Z,3.10
2023-03-20T06:34:20.259Z,3.40
2023-03-20T06:36:41.497Z,2.92
2023-03-20T06:39:03.739Z,2.80
2023-03-20T06:41:34.345Z,3.53
2023-03-20T06:43:55.754Z,3.13
2023-03-20T06:46:16.255Z,3.47
2023-03-20T06:48:36.282Z,3.72
2023-03-20T06:50:56.437Z,4.10
2023-03-20T06:53:16.751Z,3.38
2023-03-20T06:55:37.179Z,4.53
2023-03-20T06:57:57.349Z,3.58
2023-03-20T07:00:18.433Z,3.85
2023-03-20T07:02:39.075Z,3.83
2023-03-20T07:04:59.261Z,4.32
2023-03-20T07:07:19.452Z,5.95
2023-03-20T07:09:39.372Z,4.97
2023-03-20T07:11:59.993Z,4.70
2023-03-20T07:14:20.778Z,4.07
2023-03-20T07:16:41.656Z,6.38
2023-03-20T07:19:02.147Z,6.35
2023-03-20T07:21:23.006Z,6.30
2023-03-20T07:23:43.423Z,6.82
2023-03-20T07:26:04.814Z,6.65
2023-03-20T07:28:25.383Z,7.32
2023-03-20T07:30:45.826Z,6.43
2023-03-20T07:33:06.431Z,6.45
2023-03-20T07:35:26.648Z,6.03
2023-03-20T07:37:47.169Z,4.80
2023-03-20T07:40:08.142Z,4.22
2023-03-20T07:42:28.338Z,4.30
2023-03-20T07:44:48.663Z,3.90
2023-03-20T07:47:08.775Z,3.97
2023-03-20T07:49:29.048Z,3.95
2023-03-20T07:51:51.048Z,6.00
2023-03-20T07:54:11.353Z,3.92
2023-03-20T07:56:31.608Z,3.97
2023-03-20T07:58:51.787Z,4.65
2023-03-20T08:01:11.790Z,3.65
2023-03-20T08:03:31.959Z,4.05
2023-03-20T08:05:52.349Z,3.40
2023-03-20T08:08:12.465Z,3.80
2023-03-20T08:10:32.977Z,4.38
2023-03-20T08:12:53.301Z,3.25
2023-03-20T08:15:13.676Z,6.55
2023-03-20T08:17:34.140Z,5.63
2023-03-20T08:19:53.902Z,4.90
2023-03-20T08:22:13.974Z,5.25
2023-03-20T08:24:34.080Z,5.25
2023-03-20T08:26:54.326Z,4.82
2023-03-20T08:29:16.699Z,4.78
2023-03-20T08:31:36.997Z,4.80
2023-03-20T08:33:57.208Z,5.10
2023-03-20T08:36:20.139Z,5.25
2023-03-20T08:38:40.364Z,4.93
2023-03-20T08:41:00.461Z,5.07
2023-03-20T08:43:20.371Z,4.22
2023-03-20T08:45:40.494Z,3.45
2023-03-20T08:48:00.524Z,4.05
2023-03-20T08:50:20.622Z,4.00
2023-03-20T08:52:43.550Z,3.70
2023-03-20T08:55:03.402Z,4.60
2023-03-20T08:57:23.531Z,6.55
2023-03-20T08:59:43.650Z,7.60
2023-03-20T09:02:04.060Z,2.95
2023-03-20T09:04:25.032Z,3.45
2023-03-20T09:06:44.989Z,4.13
2023-03-20T09:09:05.181Z,3.25
2023-03-20T09:11:25.656Z,4.75
2023-03-20T09:13:45.873Z,4.95
2023-03-20T09:16:06.208Z,4.28
2023-03-20T09:18:26.378Z,3.30
2023-03-20T09:20:47.345Z,7.50
2023-03-20T09:23:07.130Z,9.18
2023-03-20T09:25:27.190Z,6.35
2023-03-20T09:27:47.446Z,3.67
2023-03-20T09:30:08.413Z,3.95
2023-03-20T09:32:29.149Z,3.65
2023-03-20T09:34:49.637Z,3.50
2023-03-20T09:37:09.866Z,3.90
2023-03-20T09:39:30.157Z,4.03
2023-03-20T09:41:56.960Z,3.80
2023-03-20T09:44:36.281Z,5.25
2023-03-20T09:47:18.316Z,4.90
2023-03-20T09:49:51.895Z,7.50
2023-03-20T09:52:28.499Z,4.65
2023-03-20T09:54:54.748Z,6.38
2023-03-20T09:57:24.784Z,7.10
2023-03-20T09:59:44.875Z,2.97
2023-03-20T10:02:07.160Z,3.92
2023-03-20T10:04:29.264Z,3.58
2023-03-20T10:06:49.671Z,2.97
2023-03-20T10:09:15.320Z,2.42
2023-03-20T10:11:57.742Z,3.15
2023-03-20T10:14:24.132Z,4.20
2023-03-20T10:16:53.534Z,4.75
2023-03-20T10:19:22.906Z,3.20
2023-03-20T10:21:44.235Z,7.00
2023-03-20T10:24:05.390Z,3.85
2023-03-20T10:26:25.493Z,2.13
2023-03-20T10:29:08.676Z,3.20
2023-03-20T10:31:32.267Z,3.53
2023-03-20T10:34:11.351Z,3.95
2023-03-20T10:36:46.567Z,4.10
2023-03-20T10:39:19.014Z,4.47
2023-03-20T10:41:41.079Z,4.93
2023-03-20T10:44:02.238Z,6.15
2023-03-20T10:46:33.681Z,5.65
2023-03-20T10:48:54.687Z,5.60
2023-03-20T10:51:16.177Z,5.32
2023-03-20T10:53:55.282Z,4.70
2023-03-20T10:56:18.124Z,5.32
2023-03-20T10:58:42.374Z,4.68
2023-03-20T11:01:02.909Z,10.90
2023-03-20T11:03:31.288Z,22.60
2023-03-20T11:06:08.484Z,7.90
2023-03-20T11:08:36.270Z,5.65
2023-03-20T11:11:01.111Z,5.90
2023-03-20T11:13:26.993Z,3.65
2023-03-20T11:15:47.405Z,3.72
2023-03-20T11:18:13.330Z,3.78
2023-03-20T11:20:36.334Z,5.28
2023-03-20T11:23:01.422Z,8.88
2023-03-20T11:25:28.769Z,4.78
2023-03-20T11:27:49.129Z,3.30
2023-03-20T11:30:16.889Z,2.42
2023-03-20T11:32:56.091Z,1.77
2023-03-20T11:35:25.849Z,1.27
2023-03-20T11:37:50.405Z,1.10
2023-03-20T11:40:21.740Z,1.48
2023-03-20T11:42:51.903Z,1.10
2023-03-20T11:45:18.545Z,2.22
2023-03-20T11:47:38.646Z,1.60
2023-03-20T11:50:00.366Z,2.20
2023-03-20T11:52:27.264Z,2.72
2023-03-20T11:54:51.134Z,2.70
2023-03-20T11:57:26.447Z,2.47
2023-03-20T11:59:46.672Z,2.22
2023-03-20T12:02:21.880Z,1.92
2023-03-20T12:04:43.334Z,2.70
2023-03-20T12:07:13.138Z,2.65
2023-03-20T12:09:35.946Z,3.00
2023-03-20T12:12:00.176Z,2.00
2023-03-20T12:14:33.066Z,1.60
2023-03-20T12:16:55.729Z,2.08
2023-03-20T12:22:00.902Z,2.00
2023-03-20T12:24:29.962Z,2.03
2023-03-20T12:26:50.310Z,1.30
2023-03-20T12:29:13.161Z,1.10
2023-03-20T12:31:33.526Z,1.20
2023-03-20T12:33:53.727Z,1.15
2023-03-20T12:36:15.907Z,1.30
2023-03-20T12:38:36.453Z,2.03
2023-03-20T12:41:20.163Z,2.00
2023-03-20T12:44:06.805Z,1.20
2023-03-20T12:46:35.004Z,1.40
2023-03-20T12:49:07.874Z,1.63
2023-03-20T12:51:48.404Z,1.48
2023-03-20T12:54:23.735Z,1.10
2023-03-20T12:56:59.232Z,1.10
2023-03-20T12:59:51.988Z,1.00
2023-03-20T13:02:14.746Z,1.45
2023-03-20T13:04:45.997Z,1.10
2023-03-20T13:07:11.719Z,1.33
2023-03-20T13:09:39.510Z,1.10
2023-03-20T13:12:02.689Z,1.00
2023-03-20T13:14:23.707Z,1.00
2023-03-20T13:16:50.066Z,1.00
2023-03-20T13:19:19.842Z,1.00
2023-03-20T13:21:49.262Z,1.00
2023-03-20T13:24:12.819Z,1.20
2023-03-20T13:26:37.298Z,1.02
2023-03-20T13:29:06.481Z,1.15
2023-03-20T13:31:45.561Z,1.08
2023-03-20T13:34:12.218Z,1.00
2023-03-20T13:36:51.213Z,1.05
2023-03-20T13:39:14.879Z,1.48
2023-03-20T13:41:36.025Z,0.98
2023-03-20T13:44:02.809Z,1.20
2023-03-20T13:46:34.091Z,1.00
2023-03-20T13:48:57.054Z,1.20
2023-03-20T13:51:26.399Z,1.20
2023-03-20T13:54:01.824Z,1.27
2023-03-20T13:56:29.675Z,1.10
2023-03-20T13:59:08.841Z,1.50
2023-03-20T14:01:42.369Z,1.10
2023-03-20T14:04:02.976Z,1.00
2023-03-20T14:06:32.437Z,1.10
2023-03-20T14:08:55.653Z,1.50
2023-03-20T14:11:23.487Z,1.00
2023-03-20T14:13:46.660Z,1.20
2023-03-20T14:16:11.309Z,1.10
2023-03-20T14:18:32.013Z,1.00
2023-03-20T14:20:56.498Z,1.10
2023-03-20T14:23:18.365Z,1.02
2023-03-20T14:25:45.705Z,1.10
2023-03-20T14:28:07.847Z,1.10
2023-03-20T14:30:31.182Z,1.10
2023-03-20T14:32:59.662Z,1.10
2023-03-20T14:35:25.336Z,1.10
2023-03-20T14:37:58.463Z,1.20
2023-03-20T14:42:48.540Z,1.40
2023-03-20T14:45:24.094Z,1.30
2023-03-20T14:48:01.180Z,2.03
2023-03-20T14:50:24.801Z,2.45
2023-03-20T14:52:45.637Z,1.50
2023-03-20T14:55:18.016Z,1.33
2023-03-20T14:57:55.084Z,1.00
2023-03-20T15:00:24.268Z,1.00
2023-03-20T15:02:46.177Z,1.10
2023-03-20T15:05:06.521Z,0.90
2023-03-20T15:07:37.154Z,1.10
2023-03-20T15:09:59.872Z,4.78
2023-03-20T15:12:27.772Z,1.20
2023-03-20T15:14:53.497Z,5.57
2023-03-20T15:17:18.760Z,2.63
2023-03-20T15:19:39.615Z,1.58
2023-03-20T15:21:59.938Z,1.30
2023-03-20T15:24:27.846Z,1.15
2023-03-20T15:26:51.185Z,1.33
2023-03-20T15:29:14.046Z,1.10
2023-03-20T15:33:55.164Z,1.33
2023-03-20T15:36:21.356Z,2.30
2023-03-20T15:38:41.520Z,1.20
2023-03-20T15:41:04.554Z,1.60
2023-03-20T15:43:26.059Z,1.40
2023-03-20T15:45:46.421Z,1.40
2023-03-20T15:48:07.772Z,1.10
2023-03-20T15:50:31.743Z,2.17
2023-03-20T15:52:52.436Z,1.40
2023-03-20T15:55:16.366Z,3.05
2023-03-20T15:57:40.247Z,3.70
2023-03-20T16:00:00.943Z,1.85
2023-03-20T16:02:20.953Z,1.60
2023-03-20T16:04:46.571Z,2.58
2023-03-20T16:07:19.199Z,2.63
2023-03-20T16:09:43.130Z,4.22
2023-03-20T16:12:03.580Z,3.97
2023-03-20T16:14:24.975Z,3.85
2023-03-20T16:16:47.346Z,3.30
2023-03-20T16:19:08.269Z,1.90
2023-03-20T16:21:30.669Z,1.58
2023-03-20T16:23:52.903Z,1.55
2023-03-20T16:26:15.737Z,1.80
2023-03-20T16:28:37.139Z,1.60
2023-03-20T16:31:09.149Z,2.15
2023-03-20T16:33:30.267Z,1.30
2023-03-20T16:35:50.957Z,1.17
2023-03-20T16:38:20.819Z,1.20
2023-03-20T16:40:40.886Z,1.60
2023-03-20T16:43:11.091Z,1.70
2023-03-20T16:45:33.284Z,3.85
2023-03-20T16:48:13.416Z,2.15
2023-03-20T16:50:38.337Z,1.60
2023-03-20T16:52:59.047Z,1.65
2023-03-20T16:55:22.694Z,1.20
2023-03-20T16:57:43.476Z,1.20
2023-03-20T17:00:07.546Z,1.38
2023-03-20T17:02:32.828Z,1.63
2023-03-20T17:04:56.950Z,1.25
2023-03-20T17:07:20.012Z,1.70
2023-03-20T17:12:13.574Z,4.18
2023-03-20T17:14:34.061Z,4.40
2023-03-20T17:16:56.669Z,4.03
2023-03-20T17:19:18.222Z,2.78
2023-03-20T17:21:38.641Z,2.05
2023-03-20T17:23:58.839Z,3.60
2023-03-20T17:26:19.124Z,3.92
2023-03-20T17:28:39.543Z,2.88
2023-03-20T17:31:04.448Z,3.67
2023-03-20T17:33:24.894Z,4.15
2023-03-20T17:35:45.394Z,3.05
2023-03-20T17:38:05.379Z,4.93
2023-03-20T17:40:26.377Z,3.30
2023-03-20T17:42:46.989Z,1.95
2023-03-20T17:45:07.806Z,1.83
2023-03-20T17:47:28.388Z,2.53
2023-03-20T17:49:48.816Z,2.65
2023-03-20T17:52:13.462Z,2.25
2023-03-20T17:54:33.868Z,2.80
2023-03-20T17:56:54.070Z,1.77
2023-03-20T17:59:14.653Z,2.10
2023-03-20T18:01:34.709Z,2.65
2023-03-20T18:03:54.975Z,3.15
2023-03-20T18:06:26.542Z,3.75
2023-03-20T18:08:46.981Z,2.60
2023-03-20T18:11:08.414Z,2.85
2023-03-20T18:13:28.996Z,2.97
2023-03-20T18:15:50.818Z,3.58
2023-03-20T18:18:11.198Z,3.17
2023-03-20T18:20:32.819Z,4.25
2023-03-20T18:22:52.901Z,2.20
2023-03-20T18:25:13.086Z,1.70
2023-03-20T18:27:33.352Z,2.17
2023-03-20T18:29:54.036Z,1.98
2023-03-20T18:32:14.250Z,1.58
2023-03-20T18:34:34.686Z,2.00
2023-03-20T18:36:54.897Z,2.50
2023-03-20T18:39:20.095Z,4.32
2023-03-20T18:41:40.081Z,4.60
2023-03-20T18:44:00.506Z,4.25
2023-03-20T18:46:22.312Z,4.00
2023-03-20T18:48:43.076Z,7.25
2023-03-20T18:51:03.300Z,6.43
2023-03-20T18:53:23.484Z,6.15
2023-03-20T18:55:44.069Z,5.10
2023-03-20T18:58:06.117Z,2.38
2023-03-20T19:00:27.968Z,1.77
2023-03-20T19:02:48.345Z,1.70
2023-03-20T19:05:09.775Z,1.85
2023-03-20T19:07:29.519Z,1.48
2023-03-20T19:09:49.714Z,3.00
2023-03-20T19:12:09.917Z,2.08
2023-03-20T19:14:30.245Z,3.22
2023-03-20T19:16:50.585Z,3.65
2023-03-20T19:19:13.767Z,1.88
2023-03-20T19:23:54.617Z,1.88
2023-03-20T19:26:15.980Z,2.25
2023-03-20T19:28:41.272Z,1.60
2023-03-20T19:31:01.706Z,1.42
2023-03-20T19:33:22.520Z,1.20
2023-03-20T19:38:23.390Z,1.52
2023-03-20T19:40:44.839Z,3.75
2023-03-20T19:43:05.686Z,2.05
2023-03-20T19:45:27.111Z,2.80
2023-03-20T19:47:47.530Z,2.92
2023-03-20T19:50:20.938Z,3.25
2023-03-20T19:55:03.372Z,3.95
2023-03-20T19:57:23.787Z,4.73
2023-03-20T19:59:44.115Z,10.32
2023-03-20T20:02:04.752Z,9.75
2023-03-20T20:04:25.285Z,10.65
2023-03-20T20:06:47.508Z,8.10
2023-03-20T20:09:08.130Z,10.32
2023-03-20T20:11:28.490Z,10.82
2023-03-20T20:14:07.480Z,18.77
2023-03-20T20:16:28.411Z,6.68
2023-03-20T20:18:48.569Z,9.20
2023-03-20T20:23:49.015Z,3.15
2023-03-20T20:26:09.166Z,4.45
2023-03-20T20:28:30.429Z,4.93
2023-03-20T20:30:52.705Z,6.03
2023-03-20T20:33:13.277Z,7.30
2023-03-20T20:36:07.383Z,7.15
2023-03-20T20:38:48.584Z,10.82
2023-03-20T20:40:54.463Z,10.60
2023-03-20T20:43:34.841Z,10.95
2023-03-20T20:45:55.091Z,9.70
2023-03-20T20:48:15.196Z,8.95
2023-03-20T20:50:35.664Z,9.50
2023-03-20T20:52:56.131Z,9.73
2023-03-20T20:55:25.262Z,8.20
2023-03-20T20:57:45.883Z,11.15
2023-03-20T21:00:08.356Z,14.02
2023-03-20T21:02:30.206Z,14.93
2023-03-20T21:04:50.510Z,16.92
2023-03-20T21:07:11.958Z,15.70
2023-03-20T21:09:32.879Z,14.05
2023-03-20T21:11:53.241Z,15.05
2023-03-20T21:14:14.066Z,20.48
2023-03-20T21:16:34.299Z,17.60
2023-03-20T21:18:54.444Z,15.05
2023-03-20T21:21:14.847Z,15.80
2023-03-20T21:23:34.933Z,15.35
2023-03-20T21:25:55.251Z,17.73
2023-03-20T21:28:15.785Z,16.75
2023-03-20T21:30:36.627Z,12.73
2023-03-20T21:32:57.199Z,15.20
2023-03-20T21:35:17.679Z,17.02
2023-03-20T21:40:18.354Z,11.13
2023-03-20T21:42:38.512Z,9.63
2023-03-20T21:45:53.443Z,10.82
2023-03-20T21:50:51.139Z,8.68
2023-03-20T21:53:36.420Z,4.80
2023-03-20T22:15:20.059Z,4.82
2023-03-20T22:17:50.982Z,3.17
2023-03-20T22:23:21.685Z,3.35
2023-03-20T22:25:46.746Z,2.70
2023-03-20T22:28:33.336Z,3.65
2023-03-20T22:31:19.712Z,8.25
2023-03-20T22:34:00.934Z,11.55
2023-03-20T22:46:47.809Z,13.98
2023-03-20T22:49:08.195Z,12.57
2023-03-20T22:51:34.133Z,11.85
2023-03-20T22:53:55.703Z,9.85
2023-03-20T22:56:15.893Z,8.88
2023-03-20T22:58:36.261Z,7.88
2023-03-20T23:00:56.782Z,6.90
2023-03-20T23:03:33.510Z,5.82
2023-03-20T23:05:57.297Z,4.68
2023-03-20T23:08:17.883Z,5.65
2023-03-20T23:10:41.808Z,5.22
2023-03-20T23:13:02.065Z,4.38
2023-03-20T23:15:22.381Z,5.22
2023-03-20T23:17:42.504Z,5.35
2023-03-20T23:20:11.378Z,5.47
2023-03-20T23:22:32.315Z,6.30
2023-03-20T23:24:53.583Z,5.97
2023-03-20T23:27:16.596Z,6.18
2023-03-20T23:29:37.036Z,5.35
2023-03-20T23:31:57.080Z,5.00
2023-03-20T23:34:18.173Z,5.55
2023-03-20T23:36:38.405Z,4.75
2023-03-20T23:38:58.603Z,5.13
2023-03-20T23:41:19.096Z,5.43
2023-03-20T23:43:39.730Z,6.22
2023-03-20T23:45:59.744Z,4.85
2023-03-20T23:48:20.499Z,4.18
2023-03-20T23:50:52.208Z,4.80
2023-03-20T23:53:20.627Z,4.63
2023-03-20T23:55:41.808Z,4.30
2023-03-20T23:58:01.948Z,4.85
